sensor_id;sensor_type;location;lat;lon;timestamp;pressure;altitude;pressure_sealevel;temperature;humidity
65557;BME280;52200;53.490;14.376;2022-12-31T00:01:54;100449.91;;;7.13;100.00
65557;BME280;52200;53.490;14.376;2022-12-31T00:04:19;100459.25;;;7.06;100.00
65557;BME280;52200;53.490;14.376;2022-12-31T00:06:46;100454.34;;;6.99;100.00
65557;BME280;52200;53.490;14.376;2022-12-31T00:09:11;100448.34;;;7.06;100.00
65557;BME280;52200;53.490;14.376;2022-12-31T00:11:37;100459.06;;;7.19;100.00
65557;BME280;52200;53.490;14.376;2022-12-31T00:14:03;100459.09;;;7.17;100.00
65557;BME280;52200;53.490;14.376;2022-12-31T00:16:35;100457.47;;;7.13;100.00
65557;BME280;52200;53.490;14.376;2022-12-31T00:19:02;100454.16;;;7.09;100.00
65557;BME280;52200;53.490;14.376;2022-12-31T00:21:29;100455.75;;;7.17;100.00
65557;BME280;52200;53.490;14.376;2022-12-31T00:23:55;100453.84;;;7.28;100.00
65557;BME280;52200;53.490;14.376;2022-12-31T00:26:23;100445.31;;;7.34;100.00
65557;BME280;52200;53.490;14.376;2022-12-31T00:28:49;100447.72;;;7.40;100.00
65557;BME280;52200;53.490;14.376;2022-12-31T00:31:17;100448.69;;;7.34;100.00
65557;BME280;52200;53.490;14.376;2022-12-31T00:33:43;100446.97;;;7.36;100.00
65557;BME280;52200;53.490;14.376;2022-12-31T00:38:35;100451.06;;;7.42;100.00
65557;BME280;52200;53.490;14.376;2022-12-31T00:41:02;100442.50;;;7.51;100.00
65557;BME280;52200;53.490;14.376;2022-12-31T00:43:27;100450.94;;;7.50;100.00
65557;BME280;52200;53.490;14.376;2022-12-31T00:45:53;100453.56;;;7.45;100.00
65557;BME280;52200;53.490;14.376;2022-12-31T00:48:18;100446.56;;;7.58;100.00
65557;BME280;52200;53.490;14.376;2022-12-31T00:50:44;100449.84;;;7.63;100.00
65557;BME280;52200;53.490;14.376;2022-12-31T00:53:09;100451.41;;;7.70;100.00
65557;BME280;52200;53.490;14.376;2022-12-31T00:55:35;100453.69;;;7.83;100.00
65557;BME280;52200;53.490;14.376;2022-12-31T00:58:00;100462.03;;;7.86;100.00
65557;BME280;52200;53.490;14.376;2022-12-31T01:00:25;100471.09;;;7.98;100.00
65557;BME280;52200;53.490;14.376;2022-12-31T01:02:51;100478.78;;;7.94;100.00
65557;BME280;52200;53.490;14.376;2022-12-31T01:05:16;100478.13;;;7.84;100.00
65557;BME280;52200;53.490;14.376;2022-12-31T01:07:41;100480.63;;;7.84;100.00
65557;BME280;52200;53.490;14.376;2022-12-31T01:10:07;100478.94;;;7.86;100.00
65557;BME280;52200;53.490;14.376;2022-12-31T01:12:33;100479.72;;;7.88;100.00
65557;BME280;52200;53.490;14.376;2022-12-31T01:14:58;100492.84;;;8.05;100.00
65557;BME280;52200;53.490;14.376;2022-12-31T01:17:24;100494.41;;;8.13;100.00
65557;BME280;52200;53.490;14.376;2022-12-31T01:19:49;100505.41;;;8.10;100.00
65557;BME280;52200;53.490;14.376;2022-12-31T01:22:15;100510.44;;;8.12;100.00
65557;BME280;52200;53.490;14.376;2022-12-31T01:24:40;100505.41;;;8.10;100.00
65557;BME280;52200;53.490;14.376;2022-12-31T01:27:06;100515.44;;;8.15;100.00
65557;BME280;52200;53.490;14.376;2022-12-31T01:29:31;100520.78;;;7.99;100.00
65557;BME280;52200;53.490;14.376;2022-12-31T01:31:57;100518.28;;;7.99;100.00
65557;BME280;52200;53.490;14.376;2022-12-31T01:34:22;100518.88;;;8.12;100.00
65557;BME280;52200;53.490;14.376;2022-12-31T01:36:48;100522.66;;;8.33;100.00
65557;BME280;52200;53.490;14.376;2022-12-31T01:39:14;100516.38;;;8.11;100.00
65557;BME280;52200;53.490;14.376;2022-12-31T01:41:44;100513.72;;;8.17;100.00
65557;BME280;52200;53.490;14.376;2022-12-31T01:46:43;100511.06;;;8.23;100.00
65557;BME280;52200;53.490;14.376;2022-12-31T01:49:50;100529.03;;;8.11;100.00
65557;BME280;52200;53.490;14.376;2022-12-31T01:52:23;100528.38;;;8.01;100.00
65557;BME280;52200;53.490;14.376;2022-12-31T01:54:57;100531.72;;;8.01;100.00
65557;BME280;52200;53.490;14.376;2022-12-31T01:57:25;100534.22;;;8.03;100.00
65557;BME280;52200;53.490;14.376;2022-12-31T01:59:52;100526.50;;;8.11;100.00
65557;BME280;52200;53.490;14.376;2022-12-31T02:02:19;100524.28;;;7.94;100.00
65557;BME280;52200;53.490;14.376;2022-12-31T02:04:45;100527.72;;;7.91;100.00
65557;BME280;52200;53.490;14.376;2022-12-31T02:07:11;100530.00;;;8.03;100.00
65557;BME280;52200;53.490;14.376;2022-12-31T02:09:39;100523.44;;;7.95;100.00
65557;BME280;52200;53.490;14.376;2022-12-31T02:12:06;100516.63;;;7.97;100.00
65557;BME280;52200;53.490;14.376;2022-12-31T02:14:41;100512.03;;;7.73;100.00
65557;BME280;52200;53.490;14.376;2022-12-31T02:20:18;100545.75;;;7.72;100.00
65557;BME280;52200;53.490;14.376;2022-12-31T02:28:16;100541.31;;;7.85;100.00
65557;BME280;52200;53.490;14.376;2022-12-31T02:30:47;100539.97;;;7.66;100.00
65557;BME280;52200;53.490;14.376;2022-12-31T02:33:43;100542.47;;;7.67;100.00
65557;BME280;52200;53.490;14.376;2022-12-31T02:36:26;100534.91;;;7.66;100.00
65557;BME280;52200;53.490;14.376;2022-12-31T02:38:54;100540.81;;;7.66;100.00
65557;BME280;52200;53.490;14.376;2022-12-31T02:41:21;100537.56;;;7.58;100.00
65557;BME280;52200;53.490;14.376;2022-12-31T02:44:31;100536.38;;;7.78;100.00
65557;BME280;52200;53.490;14.376;2022-12-31T02:55:54;100549.69;;;7.87;100.00
65557;BME280;52200;53.490;14.376;2022-12-31T03:01:36;100554.25;;;7.68;100.00
65557;BME280;52200;53.490;14.376;2022-12-31T03:04:23;100565.03;;;7.80;100.00
65557;BME280;52200;53.490;14.376;2022-12-31T03:07:06;100562.44;;;7.83;100.00
65557;BME280;52200;53.490;14.376;2022-12-31T03:09:32;100565.53;;;7.97;100.00
65557;BME280;52200;53.490;14.376;2022-12-31T03:11:59;100563.56;;;8.12;100.00
65557;BME280;52200;53.490;14.376;2022-12-31T03:14:43;100565.78;;;8.29;100.00
65557;BME280;52200;53.490;14.376;2022-12-31T03:17:09;100565.69;;;8.33;100.00
65557;BME280;52200;53.490;14.376;2022-12-31T03:19:34;100557.97;;;8.39;100.00
65557;BME280;52200;53.490;14.376;2022-12-31T03:22:18;100559.66;;;8.41;100.00
65557;BME280;52200;53.490;14.376;2022-12-31T03:24:59;100549.44;;;8.47;100.00
65557;BME280;52200;53.490;14.376;2022-12-31T03:27:44;100544.47;;;8.41;100.00
65557;BME280;52200;53.490;14.376;2022-12-31T03:30:12;100548.09;;;8.27;100.00
65557;BME280;52200;53.490;14.376;2022-12-31T03:32:38;100549.34;;;8.50;100.00
65557;BME280;52200;53.490;14.376;2022-12-31T03:35:04;100545.94;;;8.51;100.00
65557;BME280;52200;53.490;14.376;2022-12-31T03:37:30;100541.00;;;8.45;100.00
65557;BME280;52200;53.490;14.376;2022-12-31T03:39:55;100540.16;;;8.44;100.00
65557;BME280;52200;53.490;14.376;2022-12-31T03:42:21;100547.72;;;8.46;100.00
65557;BME280;52200;53.490;14.376;2022-12-31T03:44:46;100540.84;;;8.54;100.00
65557;BME280;52200;53.490;14.376;2022-12-31T03:47:12;100534.75;;;8.61;100.00
65557;BME280;52200;53.490;14.376;2022-12-31T03:49:37;100539.16;;;8.53;100.00
65557;BME280;52200;53.490;14.376;2022-12-31T03:52:03;100530.56;;;8.60;100.00
65557;BME280;52200;53.490;14.376;2022-12-31T03:54:30;100526.94;;;8.72;100.00
65557;BME280;52200;53.490;14.376;2022-12-31T03:56:56;100531.16;;;8.71;100.00
65557;BME280;52200;53.490;14.376;2022-12-31T03:59:21;100522.09;;;8.61;100.00
65557;BME280;52200;53.490;14.376;2022-12-31T04:01:47;100532.16;;;8.64;100.00
65557;BME280;52200;53.490;14.376;2022-12-31T04:04:12;100528.78;;;8.65;100.00
65557;BME280;52200;53.490;14.376;2022-12-31T04:06:37;100527.91;;;8.66;100.00
65557;BME280;52200;53.490;14.376;2022-12-31T04:09:03;100522.56;;;8.79;100.00
65557;BME280;52200;53.490;14.376;2022-12-31T04:11:28;100525.97;;;8.78;100.00
65557;BME280;52200;53.490;14.376;2022-12-31T04:13:54;100523.50;;;8.75;100.00
65557;BME280;52200;53.490;14.376;2022-12-31T04:16:19;100530.38;;;8.69;100.00
65557;BME280;52200;53.490;14.376;2022-12-31T04:18:44;100533.44;;;8.84;100.00
65557;BME280;52200;53.490;14.376;2022-12-31T04:21:10;100533.44;;;8.84;100.00
65557;BME280;52200;53.490;14.376;2022-12-31T04:23:35;100535.91;;;8.85;100.00
65557;BME280;52200;53.490;14.376;2022-12-31T04:26:01;100539.88;;;8.97;100.00
65557;BME280;52200;53.490;14.376;2022-12-31T04:28:26;100546.53;;;9.01;100.00
65557;BME280;52200;53.490;14.376;2022-12-31T04:30:51;100535.69;;;8.96;100.00
65557;BME280;52200;53.490;14.376;2022-12-31T04:33:17;100525.50;;;8.98;100.00
65557;BME280;52200;53.490;14.376;2022-12-31T04:35:43;100544.06;;;8.98;100.00
65557;BME280;52200;53.490;14.376;2022-12-31T04:38:08;100537.06;;;9.08;100.00
65557;BME280;52200;53.490;14.376;2022-12-31T04:40:33;100534.28;;;9.19;100.00
65557;BME280;52200;53.490;14.376;2022-12-31T04:42:59;100525.25;;;9.09;100.00
65557;BME280;52200;53.490;14.376;2022-12-31T04:45:24;100518.19;;;9.22;100.00
65557;BME280;52200;53.490;14.376;2022-12-31T04:47:50;100526.13;;;9.42;99.49
65557;BME280;52200;53.490;14.376;2022-12-31T04:50:15;100522.22;;;9.29;100.00
65557;BME280;52200;53.490;14.376;2022-12-31T04:52:40;100526.19;;;9.41;99.46
65557;BME280;52200;53.490;14.376;2022-12-31T04:55:06;100520.97;;;9.45;99.32
65557;BME280;52200;53.490;14.376;2022-12-31T04:57:32;100520.59;;;9.26;99.63
65557;BME280;52200;53.490;14.376;2022-12-31T04:59:57;100526.34;;;9.34;100.00
65557;BME280;52200;53.490;14.376;2022-12-31T05:02:23;100516.06;;;9.39;99.64
65557;BME280;52200;53.490;14.376;2022-12-31T05:04:48;100525.16;;;9.48;99.61
65557;BME280;52200;53.490;14.376;2022-12-31T05:07:13;100527.72;;;9.46;99.08
65557;BME280;52200;53.490;14.376;2022-12-31T05:09:39;100515.56;;;9.58;99.08
65557;BME280;52200;53.490;14.376;2022-12-31T05:12:04;100525.16;;;9.48;100.00
65557;BME280;52200;53.490;14.376;2022-12-31T05:14:30;100518.25;;;9.53;99.79
65557;BME280;52200;53.490;14.376;2022-12-31T05:16:55;100515.47;;;9.62;99.50
65557;BME280;52200;53.490;14.376;2022-12-31T05:19:22;100521.88;;;9.43;100.00
65557;BME280;52200;53.490;14.376;2022-12-31T05:21:47;100512.66;;;9.40;100.00
65557;BME280;52200;53.490;14.376;2022-12-31T05:24:33;100527.03;;;9.40;100.00
65557;BME280;52200;53.490;14.376;2022-12-31T05:26:58;100521.81;;;9.46;100.00
65557;BME280;52200;53.490;14.376;2022-12-31T05:29:24;100504.13;;;9.43;100.00
65557;BME280;52200;53.490;14.376;2022-12-31T05:31:49;100501.59;;;9.43;100.00
65557;BME280;52200;53.490;14.376;2022-12-31T05:34:14;100502.34;;;9.48;100.00
65557;BME280;52200;53.490;14.376;2022-12-31T05:36:40;100512.47;;;9.48;100.00
65557;BME280;52200;53.490;14.376;2022-12-31T05:39:05;100518.47;;;9.44;100.00
65557;BME280;52200;53.490;14.376;2022-12-31T05:41:30;100523.56;;;9.44;100.00
65557;BME280;52200;53.490;14.376;2022-12-31T05:43:56;100523.09;;;9.29;100.00
65557;BME280;52200;53.490;14.376;2022-12-31T05:46:21;100521.09;;;9.41;100.00
65557;BME280;52200;53.490;14.376;2022-12-31T05:48:47;100517.06;;;9.33;100.00
65557;BME280;52200;53.490;14.376;2022-12-31T05:51:12;100511.03;;;9.38;100.00
65557;BME280;52200;53.490;14.376;2022-12-31T05:53:37;100529.38;;;9.47;100.00
65557;BME280;52200;53.490;14.376;2022-12-31T05:56:03;100524.41;;;9.43;100.00
65557;BME280;52200;53.490;14.376;2022-12-31T05:58:28;100530.22;;;9.48;100.00
65557;BME280;52200;53.490;14.376;2022-12-31T06:00:54;100540.53;;;9.42;100.00
65557;BME280;52200;53.490;14.376;2022-12-31T06:03:19;100549.44;;;9.57;100.00
65557;BME280;52200;53.490;14.376;2022-12-31T06:05:45;100545.47;;;9.46;100.00
65557;BME280;52200;53.490;14.376;2022-12-31T06:08:11;100546.31;;;9.47;100.00
65557;BME280;52200;53.490;14.376;2022-12-31T06:10:38;100536.88;;;9.52;100.00
65557;BME280;52200;53.490;14.376;2022-12-31T06:13:03;100540.28;;;9.51;100.00
65557;BME280;52200;53.490;14.376;2022-12-31T06:15:29;100531.88;;;9.49;100.00
65557;BME280;52200;53.490;14.376;2022-12-31T06:17:54;100537.84;;;9.46;100.00
65557;BME280;52200;53.490;14.376;2022-12-31T06:20:19;100536.63;;;9.61;100.00
65557;BME280;52200;53.490;14.376;2022-12-31T06:22:45;100542.69;;;9.56;100.00
65557;BME280;52200;53.490;14.376;2022-12-31T06:25:10;100540.06;;;9.60;100.00
65557;BME280;52200;53.490;14.376;2022-12-31T06:27:36;100532.72;;;9.49;100.00
65557;BME280;52200;53.490;14.376;2022-12-31T06:30:01;100541.13;;;9.50;100.00
65557;BME280;52200;53.490;14.376;2022-12-31T06:32:26;100541.84;;;9.55;100.00
65557;BME280;52200;53.490;14.376;2022-12-31T06:34:52;100541.03;;;9.55;100.00
65557;BME280;52200;53.490;14.376;2022-12-31T06:37:17;100529.28;;;9.52;100.00
65557;BME280;52200;53.490;14.376;2022-12-31T06:39:42;100534.94;;;9.62;100.00
65557;BME280;52200;53.490;14.376;2022-12-31T06:42:08;100532.25;;;9.68;100.00
65557;BME280;52200;53.490;14.376;2022-12-31T06:44:33;100523.75;;;9.69;100.00
65557;BME280;52200;53.490;14.376;2022-12-31T06:46:59;100529.69;;;9.68;100.00
65557;BME280;52200;53.490;14.376;2022-12-31T06:49:24;100545.94;;;9.61;100.00
65557;BME280;52200;53.490;14.376;2022-12-31T06:51:50;100543.31;;;9.65;100.00
65557;BME280;52200;53.490;14.376;2022-12-31T06:54:15;100534.56;;;9.43;100.00
65557;BME280;52200;53.490;14.376;2022-12-31T06:56:41;100531.50;;;9.64;100.00
65557;BME280;52200;53.490;14.376;2022-12-31T06:59:23;100526.13;;;9.75;100.00
65557;BME280;52200;53.490;14.376;2022-12-31T07:20:17;100518.09;;;9.59;100.00
65557;BME280;52200;53.490;14.376;2022-12-31T07:22:44;100529.53;;;9.74;100.00
65557;BME280;52200;53.490;14.376;2022-12-31T07:25:15;100521.72;;;9.50;100.00
65557;BME280;52200;53.490;14.376;2022-12-31T07:30:16;100514.59;;;9.63;100.00
65557;BME280;52200;53.490;14.376;2022-12-31T07:48:43;100521.66;;;9.83;100.00
65557;BME280;52200;53.490;14.376;2022-12-31T07:51:09;100518.72;;;9.67;100.00
65557;BME280;52200;53.490;14.376;2022-12-31T07:53:36;100512.53;;;9.78;100.00
65557;BME280;52200;53.490;14.376;2022-12-31T07:56:04;100505.53;;;9.86;100.00
65557;BME280;52200;53.490;14.376;2022-12-31T08:01:11;100507.66;;;9.70;100.00
65557;BME280;52200;53.490;14.376;2022-12-31T08:03:51;100497.69;;;9.95;100.00
65557;BME280;52200;53.490;14.376;2022-12-31T08:12:32;100505.19;;;9.98;100.00
65557;BME280;52200;53.490;14.376;2022-12-31T08:14:58;100502.19;;;10.15;100.00
65557;BME280;52200;53.490;14.376;2022-12-31T08:17:24;100513.38;;;10.10;100.00
65557;BME280;52200;53.490;14.376;2022-12-31T08:19:50;100517.28;;;10.20;100.00
65557;BME280;52200;53.490;14.376;2022-12-31T08:30:40;100504.00;;;10.42;100.00
65557;BME280;52200;53.490;14.376;2022-12-31T08:36:14;100498.16;;;10.38;100.00
65557;BME280;52200;53.490;14.376;2022-12-31T08:46:49;100524.97;;;10.48;100.00
65557;BME280;52200;53.490;14.376;2022-12-31T08:49:19;100521.03;;;10.67;100.00
65557;BME280;52200;53.490;14.376;2022-12-31T08:51:46;100531.41;;;10.87;100.00
65557;BME280;52200;53.490;14.376;2022-12-31T08:54:12;100526.25;;;10.90;100.00
65557;BME280;52200;53.490;14.376;2022-12-31T08:56:39;100527.31;;;10.83;100.00
65557;BME280;52200;53.490;14.376;2022-12-31T09:01:50;100534.19;;;10.79;100.00
65557;BME280;52200;53.490;14.376;2022-12-31T09:07:55;100536.03;;;11.03;100.00
65557;BME280;52200;53.490;14.376;2022-12-31T09:13:27;100538.38;;;11.09;100.00
65557;BME280;52200;53.490;14.376;2022-12-31T09:16:12;100538.75;;;11.23;100.00
65557;BME280;52200;53.490;14.376;2022-12-31T09:18:42;100532.13;;;11.19;100.00
65557;BME280;52200;53.490;14.376;2022-12-31T09:21:09;100532.75;;;11.51;100.00
65557;BME280;52200;53.490;14.376;2022-12-31T09:23:36;100529.78;;;11.64;100.00
65557;BME280;52200;53.490;14.376;2022-12-31T09:31:20;100548.69;;;11.56;100.00
65557;BME280;52200;53.490;14.376;2022-12-31T09:34:11;100543.50;;;11.59;100.00
65557;BME280;52200;53.490;14.376;2022-12-31T09:36:49;100534.88;;;11.38;100.00
65557;BME280;52200;53.490;14.376;2022-12-31T09:39:22;100538.00;;;11.20;100.00
65557;BME280;52200;53.490;14.376;2022-12-31T09:42:33;100499.31;;;11.37;100.00
65557;BME280;52200;53.490;14.376;2022-12-31T09:56:04;100494.34;;;11.34;100.00
65557;BME280;52200;53.490;14.376;2022-12-31T09:58:43;100493.59;;;11.55;100.00
65557;BME280;52200;53.490;14.376;2022-12-31T10:01:28;100496.94;;;11.57;100.00
65557;BME280;52200;53.490;14.376;2022-12-31T10:06:26;100473.41;;;12.00;100.00
65557;BME280;52200;53.490;14.376;2022-12-31T10:09:25;100482.72;;;12.01;100.00
65557;BME280;52200;53.490;14.376;2022-12-31T10:37:19;100458.16;;;12.22;100.00
65557;BME280;52200;53.490;14.376;2022-12-31T11:02:58;100460.22;;;11.88;100.00
65557;BME280;52200;53.490;14.376;2022-12-31T11:19:30;100442.41;;;12.34;100.00
65557;BME280;52200;53.490;14.376;2022-12-31T11:36:27;100467.47;;;12.45;100.00
65557;BME280;52200;53.490;14.376;2022-12-31T11:42:03;100455.31;;;12.30;100.00
65557;BME280;52200;53.490;14.376;2022-12-31T11:55:58;100459.91;;;12.64;100.00
65557;BME280;52200;53.490;14.376;2022-12-31T11:58:28;100459.09;;;12.64;100.00
65557;BME280;52200;53.490;14.376;2022-12-31T12:00:58;100465.47;;;12.74;100.00
65557;BME280;52200;53.490;14.376;2022-12-31T12:03:25;100463.84;;;12.94;100.00
65557;BME280;52200;53.490;14.376;2022-12-31T12:05:51;100457.34;;;12.86;100.00
65557;BME280;52200;53.490;14.376;2022-12-31T12:08:17;100455.94;;;12.57;100.00
65557;BME280;52200;53.490;14.376;2022-12-31T12:10:46;100456.91;;;12.54;100.00
65557;BME280;52200;53.490;14.376;2022-12-31T12:13:23;100458.47;;;12.58;100.00
65557;BME280;52200;53.490;14.376;2022-12-31T12:16:00;100455.84;;;12.60;100.00
65557;BME280;52200;53.490;14.376;2022-12-31T12:18:39;100466.22;;;12.55;100.00
65557;BME280;52200;53.490;14.376;2022-12-31T12:21:17;100465.63;;;12.71;100.00
65557;BME280;52200;53.490;14.376;2022-12-31T12:23:58;100470.00;;;12.67;100.00
65557;BME280;52200;53.490;14.376;2022-12-31T12:26:36;100471.84;;;12.64;100.00
65557;BME280;52200;53.490;14.376;2022-12-31T12:29:32;100476.56;;;12.51;100.00
65557;BME280;52200;53.490;14.376;2022-12-31T12:32:06;100479.97;;;12.51;100.00
65557;BME280;52200;53.490;14.376;2022-12-31T12:34:38;100465.19;;;12.37;100.00
65557;BME280;52200;53.490;14.376;2022-12-31T12:37:06;100469.38;;;12.40;100.00
65557;BME280;52200;53.490;14.376;2022-12-31T12:40:05;100464.31;;;12.38;100.00
65557;BME280;52200;53.490;14.376;2022-12-31T12:42:33;100477.25;;;12.34;100.00
65557;BME280;52200;53.490;14.376;2022-12-31T12:45:21;100479.13;;;12.29;100.00
65557;BME280;52200;53.490;14.376;2022-12-31T12:47:47;100486.25;;;12.20;100.00
65557;BME280;52200;53.490;14.376;2022-12-31T12:50:22;100483.03;;;12.15;100.00
65557;BME280;52200;53.490;14.376;2022-12-31T13:01:23;100456.31;;;12.25;100.00
65557;BME280;52200;53.490;14.376;2022-12-31T13:04:28;100451.03;;;12.08;100.00
65557;BME280;52200;53.490;14.376;2022-12-31T13:07:23;100472.56;;;12.23;100.00
65557;BME280;52200;53.490;14.376;2022-12-31T13:12:53;100447.50;;;12.12;100.00
65557;BME280;52200;53.490;14.376;2022-12-31T13:15:32;100443.34;;;12.09;100.00
65557;BME280;52200;53.490;14.376;2022-12-31T13:18:18;100437.78;;;12.22;100.00
65557;BME280;52200;53.490;14.376;2022-12-31T13:20:59;100440.66;;;12.13;100.00
65557;BME280;52200;53.490;14.376;2022-12-31T13:23:56;100444.94;;;12.12;100.00
65557;BME280;52200;53.490;14.376;2022-12-31T13:26:28;100455.91;;;12.14;100.00
65557;BME280;52200;53.490;14.376;2022-12-31T13:28:57;100472.63;;;12.21;100.00
65557;BME280;52200;53.490;14.376;2022-12-31T13:31:30;100469.22;;;12.21;100.00
65557;BME280;52200;53.490;14.376;2022-12-31T13:34:02;100470.19;;;12.18;100.00
65557;BME280;52200;53.490;14.376;2022-12-31T13:36:29;100479.47;;;12.19;100.00
65557;BME280;52200;53.490;14.376;2022-12-31T13:39:00;100481.63;;;12.30;100.00
65557;BME280;52200;53.490;14.376;2022-12-31T13:41:32;100490.31;;;12.24;100.00
65557;BME280;52200;53.490;14.376;2022-12-31T13:46:53;100499.97;;;12.38;100.00
65557;BME280;52200;53.490;14.376;2022-12-31T13:49:42;100504.25;;;12.38;100.00
65557;BME280;52200;53.490;14.376;2022-12-31T13:57:35;100519.97;;;12.49;100.00
65557;BME280;52200;53.490;14.376;2022-12-31T14:00:06;100508.09;;;12.48;100.00
65557;BME280;52200;53.490;14.376;2022-12-31T14:02:55;100528.00;;;12.61;100.00
65557;BME280;52200;53.490;14.376;2022-12-31T14:05:37;100523.56;;;12.66;100.00
65557;BME280;52200;53.490;14.376;2022-12-31T14:08:05;100551.41;;;12.48;100.00
65557;BME280;52200;53.490;14.376;2022-12-31T14:18:42;100536.13;;;12.48;100.00
65557;BME280;52200;53.490;14.376;2022-12-31T14:21:33;100533.34;;;12.54;100.00
65557;BME280;52200;53.490;14.376;2022-12-31T14:24:41;100539.31;;;12.53;100.00
65557;BME280;52200;53.490;14.376;2022-12-31T14:27:04;100546.44;;;12.45;100.00
65557;BME280;52200;53.490;14.376;2022-12-31T14:29:41;100539.22;;;12.56;100.00
65557;BME280;52200;53.490;14.376;2022-12-31T14:37:40;100558.31;;;12.46;100.00
65557;BME280;52200;53.490;14.376;2022-12-31T14:40:27;100562.47;;;12.49;100.00
65557;BME280;52200;53.490;14.376;2022-12-31T14:46:26;100575.09;;;12.28;100.00
65557;BME280;52200;53.490;14.376;2022-12-31T14:49:12;100583.97;;;12.18;100.00
65557;BME280;52200;53.490;14.376;2022-12-31T14:51:39;100573.47;;;12.02;100.00
65557;BME280;52200;53.490;14.376;2022-12-31T14:54:24;100582.53;;;11.84;100.00
65557;BME280;52200;53.490;14.376;2022-12-31T14:56:50;100583.81;;;11.97;100.00
65557;BME280;52200;53.490;14.376;2022-12-31T14:59:34;100571.16;;;11.94;100.00
65557;BME280;52200;53.490;14.376;2022-12-31T15:01:59;100577.00;;;11.98;100.00
65557;BME280;52200;53.490;14.376;2022-12-31T15:04:41;100594.59;;;12.04;100.00
65557;BME280;52200;53.490;14.376;2022-12-31T15:07:30;100590.97;;;12.11;100.00
65557;BME280;52200;53.490;14.376;2022-12-31T15:12:43;100603.81;;;12.08;100.00
65557;BME280;52200;53.490;14.376;2022-12-31T15:20:45;100616.94;;;12.21;100.00
65557;BME280;52200;53.490;14.376;2022-12-31T15:23:21;100607.91;;;12.12;100.00
65557;BME280;52200;53.490;14.376;2022-12-31T15:25:49;100626.75;;;12.32;100.00
65557;BME280;52200;53.490;14.376;2022-12-31T15:28:33;100628.06;;;12.42;100.00
65557;BME280;52200;53.490;14.376;2022-12-31T15:31:03;100635.06;;;12.37;100.00
65557;BME280;52200;53.490;14.376;2022-12-31T15:33:37;100634.03;;;12.43;100.00
65557;BME280;52200;53.490;14.376;2022-12-31T15:38:39;100621.44;;;12.38;100.00
65557;BME280;52200;53.490;14.376;2022-12-31T15:41:27;100636.56;;;12.43;100.00
65557;BME280;52200;53.490;14.376;2022-12-31T15:44:00;100631.25;;;12.49;100.00
65557;BME280;52200;53.490;14.376;2022-12-31T15:46:32;100637.94;;;12.51;100.00
65557;BME280;52200;53.490;14.376;2022-12-31T15:49:12;100634.03;;;12.43;100.00
65557;BME280;52200;53.490;14.376;2022-12-31T15:51:51;100629.69;;;12.45;100.00
65557;BME280;52200;53.490;14.376;2022-12-31T15:54:36;100640.06;;;12.40;100.00
65557;BME280;52200;53.490;14.376;2022-12-31T15:57:04;100630.56;;;12.44;100.00
65557;BME280;52200;53.490;14.376;2022-12-31T15:59:31;100642.31;;;12.48;100.00
65557;BME280;52200;53.490;14.376;2022-12-31T16:01:57;100646.84;;;12.63;100.00
65557;BME280;52200;53.490;14.376;2022-12-31T16:04:25;100644.50;;;12.58;100.00
65557;BME280;52200;53.490;14.376;2022-12-31T16:06:52;100637.16;;;12.73;100.00
65557;BME280;52200;53.490;14.376;2022-12-31T16:09:30;100632.03;;;12.73;100.00
65557;BME280;52200;53.490;14.376;2022-12-31T16:12:00;100638.53;;;12.58;100.00
65557;BME280;52200;53.490;14.376;2022-12-31T16:14:37;100639.31;;;12.60;100.00
65557;BME280;52200;53.490;14.376;2022-12-31T16:17:04;100632.56;;;12.59;100.00
65557;BME280;52200;53.490;14.376;2022-12-31T16:19:40;100628.88;;;12.44;100.00
65557;BME280;52200;53.490;14.376;2022-12-31T16:22:14;100630.09;;;12.34;100.00
65557;BME280;52200;53.490;14.376;2022-12-31T16:24:41;100628.72;;;12.47;100.00
65557;BME280;52200;53.490;14.376;2022-12-31T16:27:12;100621.75;;;12.29;100.00
65557;BME280;52200;53.490;14.376;2022-12-31T16:29:42;100621.88;;;12.49;100.00
65557;BME280;52200;53.490;14.376;2022-12-31T16:32:14;100623.63;;;12.47;100.00
65557;BME280;52200;53.490;14.376;2022-12-31T16:34:40;100614.81;;;12.34;100.00
65557;BME280;52200;53.490;14.376;2022-12-31T16:37:14;100619.78;;;12.37;100.00
65557;BME280;52200;53.490;14.376;2022-12-31T16:40:11;100615.06;;;12.26;100.00
65557;BME280;52200;53.490;14.376;2022-12-31T16:42:39;100596.56;;;12.21;100.00
65557;BME280;52200;53.490;14.376;2022-12-31T16:45:17;100598.97;;;12.25;100.00
65557;BME280;52200;53.490;14.376;2022-12-31T16:47:43;100601.06;;;12.38;100.00
65557;BME280;52200;53.490;14.376;2022-12-31T16:50:17;100602.28;;;12.51;100.00
65557;BME280;52200;53.490;14.376;2022-12-31T16:52:47;100593.94;;;12.24;100.00
65557;BME280;52200;53.490;14.376;2022-12-31T16:55:23;100602.22;;;12.29;100.00
65557;BME280;52200;53.490;14.376;2022-12-31T16:57:52;100597.94;;;12.30;100.00
65557;BME280;52200;53.490;14.376;2022-12-31T17:00:20;100598.56;;;12.36;100.00
65557;BME280;52200;53.490;14.376;2022-12-31T17:03:07;100592.31;;;12.45;100.00
65557;BME280;52200;53.490;14.376;2022-12-31T17:05:56;100588.47;;;12.33;100.00
65557;BME280;52200;53.490;14.376;2022-12-31T17:09:32;100594.75;;;12.24;100.00
65557;BME280;52200;53.490;14.376;2022-12-31T17:11:33;100601.25;;;12.55;100.00
65557;BME280;52200;53.490;14.376;2022-12-31T17:14:12;100602.06;;;12.57;100.00